createdAt,value
2023-02-09T00:01:31.873Z,24.83
2023-02-09T00:04:02.569Z,26.25
2023-02-09T00:06:30.238Z,24.48
2023-02-09T00:08:59.116Z,25.25
2023-02-09T00:11:49.818Z,24.20
2023-02-09T00:14:21.739Z,27.55
2023-02-09T00:16:53.431Z,23.42
2023-02-09T00:19:21.490Z,24.48
2023-02-09T00:21:49.040Z,25.15
2023-02-09T00:24:16.353Z,24.65
2023-02-09T00:26:44.131Z,26.80
2023-02-09T00:29:11.985Z,25.05
2023-02-09T00:31:39.889Z,31.33
2023-02-09T00:34:07.663Z,25.88
2023-02-09T00:36:35.153Z,24.90
2023-02-09T00:39:02.200Z,28.55
2023-02-09T00:41:47.589Z,25.27
2023-02-09T00:44:14.523Z,23.65
2023-02-09T00:46:41.555Z,27.45
2023-02-09T00:49:08.394Z,30.70
2023-02-09T00:51:35.676Z,26.40
2023-02-09T00:54:03.512Z,26.95
2023-02-09T00:56:30.414Z,27.40
2023-02-09T00:58:57.419Z,29.42
2023-02-09T01:01:25.284Z,25.20
2023-02-09T01:03:53.355Z,25.10
2023-02-09T01:06:20.958Z,24.92
2023-02-09T01:08:48.520Z,23.40
2023-02-09T01:11:16.020Z,31.08
2023-02-09T01:13:44.935Z,27.38
2023-02-09T01:16:16.822Z,31.65
2023-02-09T01:18:45.011Z,24.63
2023-02-09T01:21:19.799Z,24.67
2023-02-09T01:23:48.593Z,25.38
2023-02-09T01:26:19.170Z,25.33
2023-02-09T01:28:51.229Z,28.10
2023-02-09T01:31:32.594Z,26.00
2023-02-09T01:34:02.351Z,28.00
2023-02-09T01:36:31.985Z,32.40
2023-02-09T01:39:01.336Z,29.05
2023-02-09T01:41:28.958Z,26.85
2023-02-09T01:44:07.716Z,27.77
2023-02-09T01:46:37.429Z,25.75
2023-02-09T01:49:20.150Z,27.40
2023-02-09T01:52:01.116Z,27.50
2023-02-09T01:54:46.495Z,25.02
2023-02-09T01:57:19.260Z,31.85
2023-02-09T01:59:53.048Z,25.00
2023-02-09T02:02:21.964Z,22.70
2023-02-09T02:04:50.247Z,27.35
2023-02-09T02:07:41.003Z,25.33
2023-02-09T02:10:08.677Z,25.33
2023-02-09T02:12:37.062Z,23.42
2023-02-09T02:15:04.993Z,27.75
2023-02-09T02:18:12.296Z,28.92
2023-02-09T02:21:08.333Z,27.13
2023-02-09T02:24:19.299Z,25.60
2023-02-09T02:26:56.521Z,23.60
2023-02-09T02:30:02.859Z,28.67
2023-02-09T02:32:39.530Z,25.60
2023-02-09T02:35:34.687Z,27.10
2023-02-09T02:38:36.373Z,26.52
2023-02-09T02:41:26.659Z,27.88
2023-02-09T02:44:13.584Z,23.23
2023-02-09T02:46:47.255Z,24.15
2023-02-09T02:49:53.407Z,22.23
2023-02-09T02:52:20.694Z,23.95
2023-02-09T02:55:15.730Z,26.33
2023-02-09T02:57:49.351Z,25.77
2023-02-09T03:00:30.086Z,25.70
2023-02-09T03:03:03.890Z,26.23
2023-02-09T03:05:32.160Z,29.80
2023-02-09T03:07:59.220Z,22.92
2023-02-09T03:10:32.821Z,24.58
2023-02-09T03:13:18.752Z,22.42
2023-02-09T03:16:06.315Z,25.13
2023-02-09T03:19:01.016Z,27.08
2023-02-09T03:22:13.517Z,26.88
2023-02-09T03:25:05.753Z,23.48
2023-02-09T03:27:40.600Z,25.15
2023-02-09T03:30:12.053Z,20.75
2023-02-09T03:32:41.098Z,23.65
2023-02-09T03:35:12.010Z,26.00
2023-02-09T03:37:38.931Z,24.60
2023-02-09T03:40:06.775Z,22.98
2023-02-09T03:42:33.730Z,22.05
2023-02-09T03:45:01.177Z,26.85
2023-02-09T03:47:28.215Z,25.20
2023-02-09T03:49:55.189Z,23.70
2023-02-09T03:52:22.120Z,23.45
2023-02-09T03:54:49.086Z,25.50
2023-02-09T03:57:16.144Z,25.98
2023-02-09T03:59:43.224Z,21.65
2023-02-09T04:02:10.950Z,27.45
2023-02-09T04:04:38.187Z,24.80
2023-02-09T04:07:05.264Z,25.23
2023-02-09T04:09:32.541Z,27.40
2023-02-09T04:11:59.532Z,23.40
2023-02-09T04:14:26.481Z,22.45
2023-02-09T04:16:53.380Z,22.65
2023-02-09T04:19:20.390Z,24.55
2023-02-09T04:21:47.463Z,24.23
2023-02-09T04:24:15.215Z,21.38
2023-02-09T04:26:42.252Z,21.85
2023-02-09T04:29:09.174Z,24.13
2023-02-09T04:31:36.160Z,23.95
2023-02-09T04:34:03.231Z,21.77
2023-02-09T04:36:30.463Z,22.00
2023-02-09T04:38:57.418Z,22.02
2023-02-09T04:41:24.444Z,23.33
2023-02-09T04:43:51.538Z,23.70
2023-02-09T04:46:19.515Z,22.75
2023-02-09T04:48:46.822Z,23.08
2023-02-09T04:51:14.399Z,25.45
2023-02-09T04:53:41.574Z,23.52
2023-02-09T04:56:10.334Z,24.92
2023-02-09T04:58:56.157Z,23.95
2023-02-09T05:01:25.015Z,24.13
2023-02-09T05:03:52.586Z,22.75
2023-02-09T05:06:19.812Z,22.75
2023-02-09T05:08:47.145Z,24.17
2023-02-09T05:11:14.827Z,22.55
2023-02-09T05:13:42.528Z,21.08
2023-02-09T05:16:14.717Z,27.92
2023-02-09T05:18:41.715Z,28.10
2023-02-09T05:21:08.838Z,25.63
2023-02-09T05:23:36.148Z,25.40
2023-02-09T05:26:03.068Z,24.55
2023-02-09T05:28:30.334Z,22.17
2023-02-09T05:30:57.623Z,21.35
2023-02-09T05:33:26.232Z,26.50
2023-02-09T05:35:55.654Z,25.52
2023-02-09T05:38:22.848Z,25.85
2023-02-09T05:40:50.717Z,25.92
2023-02-09T05:43:18.299Z,25.25
2023-02-09T05:45:46.520Z,23.38
2023-02-09T05:48:13.611Z,24.48
2023-02-09T05:50:40.516Z,25.23
2023-02-09T05:53:08.737Z,27.92
2023-02-09T05:55:35.880Z,24.40
2023-02-09T05:58:02.903Z,23.02
2023-02-09T06:00:30.123Z,27.65
2023-02-09T06:02:58.579Z,24.58
2023-02-09T06:05:26.778Z,20.70
2023-02-09T06:07:54.009Z,28.00
2023-02-09T06:10:21.191Z,24.65
2023-02-09T06:12:48.532Z,30.35
2023-02-09T06:15:18.899Z,23.33
2023-02-09T06:17:46.400Z,26.25
2023-02-09T06:20:13.421Z,25.05
2023-02-09T06:22:40.320Z,27.70
2023-02-09T06:25:07.839Z,28.73
2023-02-09T06:27:34.659Z,24.25
2023-02-09T06:30:01.709Z,20.85
2023-02-09T06:32:28.617Z,29.20
2023-02-09T06:34:55.581Z,26.50
2023-02-09T06:37:22.799Z,29.15
2023-02-09T06:39:49.826Z,26.88
2023-02-09T06:42:16.898Z,22.15
2023-02-09T06:44:44.048Z,26.30
2023-02-09T06:47:11.000Z,28.17
2023-02-09T06:49:38.005Z,25.08
2023-02-09T06:52:05.518Z,29.67
2023-02-09T06:54:32.751Z,23.95
2023-02-09T06:57:00.093Z,30.50
2023-02-09T06:59:26.989Z,28.58
2023-02-09T07:01:55.137Z,27.05
2023-02-09T07:04:22.480Z,42.20
2023-02-09T07:06:49.835Z,24.88
2023-02-09T07:09:16.941Z,24.90
2023-02-09T07:11:43.978Z,31.73
2023-02-09T07:14:11.020Z,25.77
2023-02-09T07:16:38.051Z,32.13
2023-02-09T07:19:05.105Z,30.15
2023-02-09T07:21:32.108Z,27.77
2023-02-09T07:23:59.147Z,33.20
2023-02-09T07:26:26.184Z,23.20
2023-02-09T07:28:53.286Z,24.33
2023-02-09T07:31:20.444Z,27.83
2023-02-09T07:33:47.815Z,26.05
2023-02-09T07:36:16.495Z,29.13
2023-02-09T07:38:44.321Z,25.42
2023-02-09T07:41:17.084Z,29.55
2023-02-09T07:43:44.524Z,23.30
2023-02-09T07:46:15.095Z,28.27
2023-02-09T07:48:42.271Z,26.83
2023-02-09T07:51:19.881Z,27.05
2023-02-09T07:53:47.774Z,29.33
2023-02-09T07:56:14.666Z,24.35
2023-02-09T07:58:41.730Z,30.20
2023-02-09T08:01:11.695Z,28.80
2023-02-09T08:03:41.470Z,26.10
2023-02-09T08:06:42.797Z,23.90
2023-02-09T08:09:12.765Z,29.60
2023-02-09T08:11:49.238Z,26.58
2023-02-09T08:14:36.152Z,25.35
2023-02-09T08:20:01.139Z,24.30
2023-02-09T08:22:33.039Z,24.70
2023-02-09T08:25:01.660Z,28.77
2023-02-09T08:27:29.586Z,22.98
2023-02-09T08:29:58.761Z,26.38
2023-02-09T08:32:25.824Z,26.90
2023-02-09T08:34:53.122Z,24.63
2023-02-09T08:37:20.112Z,26.02
2023-02-09T08:39:47.170Z,23.85
2023-02-09T08:42:14.226Z,22.05
2023-02-09T08:44:41.477Z,24.52
2023-02-09T08:47:08.725Z,24.15
2023-02-09T08:49:36.239Z,25.98
2023-02-09T08:52:03.359Z,24.55
2023-02-09T08:54:30.518Z,25.52
2023-02-09T08:56:57.550Z,26.95
2023-02-09T08:59:24.605Z,26.35
2023-02-09T09:01:51.579Z,20.65
2023-02-09T09:04:18.485Z,21.80
2023-02-09T09:06:46.198Z,26.80
2023-02-09T09:09:14.028Z,27.15
2023-02-09T09:11:41.315Z,20.85
2023-02-09T09:14:08.322Z,24.08
2023-02-09T09:16:35.232Z,23.38
2023-02-09T09:19:04.614Z,26.90
2023-02-09T09:21:31.744Z,25.13
2023-02-09T09:23:58.696Z,24.38
2023-02-09T09:26:25.581Z,22.33
2023-02-09T09:28:52.660Z,26.10
2023-02-09T09:31:20.464Z,22.20
2023-02-09T09:33:47.833Z,23.85
2023-02-09T09:36:15.087Z,22.40
2023-02-09T09:38:42.555Z,22.23
2023-02-09T09:41:39.088Z,19.67
2023-02-09T09:44:41.411Z,22.77
2023-02-09T09:47:16.736Z,20.70
2023-02-09T09:49:43.903Z,21.20
2023-02-09T09:52:31.145Z,22.08
2023-02-09T09:55:01.344Z,22.42
2023-02-09T09:57:31.336Z,19.63
2023-02-09T10:00:02.162Z,21.25
2023-02-09T10:02:33.983Z,17.63
2023-02-09T10:05:17.225Z,20.15
2023-02-09T10:07:51.655Z,20.05
2023-02-09T10:10:33.831Z,20.13
2023-02-09T10:13:07.471Z,21.65
2023-02-09T10:15:36.584Z,19.92
2023-02-09T10:18:14.228Z,18.30
2023-02-09T10:20:48.814Z,16.58
2023-02-09T10:23:37.597Z,23.92
2023-02-09T10:26:23.997Z,18.77
2023-02-09T10:28:55.893Z,18.45
2023-02-09T10:31:34.623Z,18.08
2023-02-09T10:34:17.442Z,19.10
2023-02-09T10:36:54.080Z,22.25
2023-02-09T10:41:55.801Z,17.88
2023-02-09T10:44:30.684Z,18.98
2023-02-09T10:47:19.827Z,23.63
2023-02-09T10:50:17.678Z,17.52
2023-02-09T10:53:21.262Z,16.30
2023-02-09T10:55:48.647Z,17.63
2023-02-09T10:58:27.763Z,17.67
2023-02-09T11:01:09.750Z,15.43
2023-02-09T11:03:57.084Z,14.70
2023-02-09T11:06:24.571Z,13.45
2023-02-09T11:09:15.813Z,14.35
2023-02-09T11:11:44.927Z,14.95
2023-02-09T11:14:20.212Z,16.00
2023-02-09T11:17:18.160Z,15.45
2023-02-09T11:20:12.185Z,14.32
2023-02-09T11:23:12.210Z,14.20
2023-02-09T11:26:08.647Z,16.52
2023-02-09T11:28:56.683Z,15.27
2023-02-09T11:32:05.010Z,14.20
2023-02-09T11:34:47.083Z,13.27
2023-02-09T11:38:02.246Z,14.38
2023-02-09T11:40:45.281Z,15.02
2023-02-09T11:43:37.680Z,13.52
2023-02-09T11:46:29.017Z,11.85
2023-02-09T11:49:02.613Z,13.95
2023-02-09T11:51:34.547Z,13.57
2023-02-09T11:54:26.716Z,13.27
2023-02-09T11:57:00.465Z,12.73
2023-02-09T11:59:40.405Z,13.05
2023-02-09T12:02:32.067Z,12.13
2023-02-09T12:05:02.104Z,14.35
2023-02-09T12:08:17.095Z,15.73
2023-02-09T12:11:28.148Z,13.88
2023-02-09T12:14:34.932Z,13.45
2023-02-09T12:17:23.095Z,13.57
2023-02-09T12:20:01.856Z,17.05
2023-02-09T12:22:35.283Z,16.10
2023-02-09T12:25:42.407Z,14.25
2023-02-09T12:28:09.453Z,16.58
2023-02-09T12:30:42.601Z,16.27
2023-02-09T12:33:24.588Z,17.75
2023-02-09T12:36:09.631Z,13.75
2023-02-09T12:39:04.731Z,14.27
2023-02-09T12:41:52.251Z,19.10
2023-02-09T12:46:55.137Z,15.40
2023-02-09T12:49:33.362Z,15.75
2023-02-09T12:52:03.438Z,15.23
2023-02-09T12:54:55.294Z,14.27
2023-02-09T12:57:22.253Z,20.45
2023-02-09T12:59:52.561Z,16.98
2023-02-09T13:02:50.771Z,13.93
2023-02-09T13:05:28.711Z,16.60
2023-02-09T13:08:15.678Z,14.75
2023-02-09T13:10:57.833Z,14.02
2023-02-09T13:13:59.145Z,15.90
2023-02-09T13:17:10.360Z,15.10
2023-02-09T13:20:10.428Z,14.40
2023-02-09T13:23:12.707Z,13.77
2023-02-09T13:25:40.790Z,14.38
2023-02-09T13:28:19.896Z,12.75
2023-02-09T13:30:47.437Z,13.80
2023-02-09T13:33:44.300Z,14.40
2023-02-09T13:36:35.558Z,13.13
2023-02-09T13:39:08.093Z,14.43
2023-02-09T13:41:40.446Z,14.93
2023-02-09T13:44:43.761Z,18.88
2023-02-09T13:47:15.555Z,15.77
2023-02-09T13:49:55.693Z,12.95
2023-02-09T13:52:23.701Z,16.17
2023-02-09T13:54:52.659Z,13.95
2023-02-09T13:57:35.773Z,14.82
2023-02-09T14:00:22.920Z,14.30
2023-02-09T14:05:41.430Z,13.13
2023-02-09T14:08:11.425Z,14.40
2023-02-09T14:10:41.520Z,15.65
2023-02-09T14:13:26.655Z,15.73
2023-02-09T14:16:08.690Z,16.42
2023-02-09T14:18:54.949Z,14.75
2023-02-09T14:21:29.573Z,17.03
2023-02-09T14:23:57.042Z,19.67
2023-02-09T14:26:36.212Z,15.27
2023-02-09T14:29:30.650Z,15.93
2023-02-09T14:32:31.965Z,13.60
2023-02-09T14:35:21.078Z,16.50
2023-02-09T14:37:50.042Z,14.38
2023-02-09T14:40:28.331Z,16.52
2023-02-09T14:43:27.483Z,15.43
2023-02-09T14:46:01.122Z,15.75
2023-02-09T14:48:31.592Z,15.38
2023-02-09T14:51:04.497Z,15.50
2023-02-09T14:53:33.343Z,15.38
2023-02-09T14:56:00.303Z,17.13
2023-02-09T14:58:29.655Z,16.95
2023-02-09T15:01:00.555Z,14.63
2023-02-09T15:03:28.016Z,15.25
2023-02-09T15:06:02.701Z,14.05
2023-02-09T15:08:34.715Z,15.98
2023-02-09T15:11:24.408Z,13.60
2023-02-09T15:13:57.871Z,16.05
2023-02-09T15:16:25.003Z,13.90
2023-02-09T15:18:51.910Z,15.30
2023-02-09T15:21:18.752Z,16.08
2023-02-09T15:23:45.772Z,17.33
2023-02-09T15:26:17.711Z,16.48
2023-02-09T15:28:44.731Z,16.00
2023-02-09T15:31:15.714Z,16.13
2023-02-09T15:33:43.325Z,15.52
2023-02-09T15:36:19.846Z,15.23
2023-02-09T15:38:47.166Z,18.73
2023-02-09T15:41:35.042Z,14.68
2023-02-09T15:44:44.493Z,15.00
2023-02-09T15:47:29.938Z,24.42
2023-02-09T15:49:56.909Z,19.38
2023-02-09T15:52:23.928Z,17.60
2023-02-09T15:54:52.805Z,17.10
2023-02-09T15:57:19.796Z,16.10
2023-02-09T15:59:48.272Z,19.77
2023-02-09T16:02:19.290Z,21.83
2023-02-09T16:04:47.742Z,19.83
2023-02-09T16:07:24.963Z,17.30
2023-02-09T16:09:52.441Z,17.42
2023-02-09T16:12:19.506Z,21.35
2023-02-09T16:14:46.536Z,20.98
2023-02-09T16:17:13.595Z,18.65
2023-02-09T16:19:40.494Z,23.98
2023-02-09T16:22:07.667Z,20.48
2023-02-09T16:24:45.196Z,19.75
2023-02-09T16:27:21.838Z,20.20
2023-02-09T16:29:48.983Z,17.60
2023-02-09T16:32:20.238Z,20.42
2023-02-09T16:34:47.335Z,19.77
2023-02-09T16:37:25.578Z,18.05
2023-02-09T16:39:53.034Z,19.73
2023-02-09T16:42:20.223Z,23.42
2023-02-09T16:44:47.194Z,21.25
2023-02-09T16:47:28.525Z,26.58
2023-02-09T16:50:11.861Z,16.77
2023-02-09T16:52:42.262Z,18.73
2023-02-09T16:55:31.971Z,22.17
2023-02-09T16:58:03.318Z,20.75
2023-02-09T17:00:37.129Z,20.38
2023-02-09T17:03:20.038Z,18.45
2023-02-09T17:05:50.586Z,19.60
2023-02-09T17:08:21.881Z,20.70
2023-02-09T17:10:52.952Z,19.25
2023-02-09T17:13:21.519Z,18.55
2023-02-09T17:15:54.009Z,19.48
2023-02-09T17:18:42.199Z,20.05
2023-02-09T17:21:20.025Z,18.52
2023-02-09T17:23:47.089Z,19.02
2023-02-09T17:26:14.489Z,20.25
2023-02-09T17:28:43.084Z,19.45
2023-02-09T17:31:43.728Z,19.63
2023-02-09T17:36:44.967Z,15.63
2023-02-09T17:39:12.306Z,21.38
2023-02-09T17:41:44.816Z,18.83
2023-02-09T17:44:43.698Z,23.08
2023-02-09T17:47:18.189Z,19.52
2023-02-09T17:49:45.257Z,25.25
2023-02-09T17:52:19.780Z,21.27
2023-02-09T17:54:47.705Z,22.55
2023-02-09T17:57:17.161Z,20.60
2023-02-09T17:59:45.922Z,24.73
2023-02-09T18:02:19.631Z,22.92
2023-02-09T18:04:46.897Z,24.70
2023-02-09T18:07:20.014Z,22.45
2023-02-09T18:09:46.925Z,22.42
2023-02-09T18:12:26.427Z,22.45
2023-02-09T18:14:53.579Z,20.95
2023-02-09T18:17:20.581Z,22.55
2023-02-09T18:19:47.605Z,26.00
2023-02-09T18:22:17.186Z,19.60
2023-02-09T18:24:44.168Z,23.73
2023-02-09T18:27:20.245Z,19.05
2023-02-09T18:30:13.910Z,22.30
2023-02-09T18:32:41.269Z,20.30
2023-02-09T18:35:12.969Z,18.98
2023-02-09T18:37:39.947Z,26.20
2023-02-09T18:40:07.118Z,20.35
2023-02-09T18:42:34.347Z,26.55
2023-02-09T18:45:01.523Z,22.25
2023-02-09T18:47:28.489Z,25.73
2023-02-09T18:49:56.711Z,25.27
2023-02-09T18:52:26.839Z,28.55
2023-02-09T18:54:53.965Z,21.10
2023-02-09T18:57:20.865Z,19.90
2023-02-09T18:59:48.001Z,24.30
2023-02-09T19:02:15.772Z,31.90
2023-02-09T19:04:43.716Z,25.00
2023-02-09T19:07:12.323Z,27.58
2023-02-09T19:09:40.389Z,23.63
2023-02-09T19:12:07.535Z,18.83
2023-02-09T19:14:41.040Z,22.55
2023-02-09T19:17:14.791Z,18.05
2023-02-09T19:19:42.418Z,25.02
2023-02-09T19:22:10.782Z,21.42
2023-02-09T19:24:37.815Z,20.85
2023-02-09T19:27:06.691Z,19.65
2023-02-09T19:29:34.086Z,21.52
2023-02-09T19:32:02.920Z,18.52
2023-02-09T19:34:38.736Z,23.77
2023-02-09T19:37:07.823Z,22.33
2023-02-09T19:39:38.273Z,20.58
2023-02-09T19:42:06.213Z,19.73
2023-02-09T19:44:35.040Z,19.58
2023-02-09T19:47:02.010Z,19.83
2023-02-09T19:49:29.369Z,19.02
2023-02-09T19:51:56.417Z,26.95
2023-02-09T19:54:23.463Z,22.80
2023-02-09T19:56:50.427Z,24.10
2023-02-09T19:59:17.607Z,19.05
2023-02-09T20:01:44.581Z,23.65
2023-02-09T20:04:11.484Z,20.30
2023-02-09T20:06:38.473Z,19.83
2023-02-09T20:09:05.503Z,22.70
2023-02-09T20:11:33.435Z,20.55
2023-02-09T20:16:32.652Z,23.85
2023-02-09T20:18:59.616Z,27.38
2023-02-09T20:21:26.704Z,28.77
2023-02-09T20:23:56.194Z,22.65
2023-02-09T20:26:29.704Z,26.33
2023-02-09T20:28:58.075Z,21.02
2023-02-09T20:31:29.760Z,23.55
2023-02-09T20:33:56.866Z,24.05
2023-02-09T20:36:25.320Z,23.48
2023-02-09T20:38:52.658Z,22.95
2023-02-09T20:41:19.714Z,22.95
2023-02-09T20:44:25.445Z,20.92
2023-02-09T20:46:58.080Z,20.70
2023-02-09T20:49:29.858Z,20.88
2023-02-09T20:51:58.060Z,26.25
2023-02-09T20:54:25.197Z,24.10
2023-02-09T20:56:52.220Z,19.73
2023-02-09T20:59:19.320Z,23.20
2023-02-09T21:01:46.315Z,24.83
2023-02-09T21:04:13.316Z,25.10
2023-02-09T21:06:40.369Z,21.23
2023-02-09T21:09:11.361Z,25.02
2023-02-09T21:11:38.328Z,23.77
2023-02-09T21:14:05.339Z,23.83
2023-02-09T21:16:32.696Z,19.75
2023-02-09T21:19:00.101Z,22.23
2023-02-09T21:21:27.455Z,20.08
2023-02-09T21:24:18.947Z,22.05
2023-02-09T21:26:46.266Z,22.33
2023-02-09T21:29:14.565Z,21.25
2023-02-09T21:31:41.716Z,20.30
2023-02-09T21:34:16.168Z,26.63
2023-02-09T21:36:43.803Z,18.90
2023-02-09T21:39:10.784Z,19.92
2023-02-09T21:41:56.104Z,23.15
2023-02-09T21:44:23.420Z,20.30
2023-02-09T21:46:51.150Z,29.67
2023-02-09T21:49:18.158Z,23.63
2023-02-09T21:51:45.253Z,23.80
2023-02-09T21:54:17.478Z,21.92
2023-02-09T21:56:44.865Z,20.70
2023-02-09T21:59:11.880Z,25.65
2023-02-09T22:01:39.482Z,26.83
2023-02-09T22:04:06.629Z,23.65
2023-02-09T22:06:33.733Z,23.00
2023-02-09T22:09:02.838Z,25.33
2023-02-09T22:11:30.109Z,23.27
2023-02-09T22:13:57.160Z,21.23
2023-02-09T22:16:24.589Z,22.80
2023-02-09T22:18:52.117Z,26.25
2023-02-09T22:21:19.238Z,25.02
2023-02-09T22:23:46.206Z,20.42
2023-02-09T22:26:13.963Z,22.55
2023-02-09T22:28:43.425Z,24.40
2023-02-09T22:31:16.916Z,23.35
2023-02-09T22:33:44.682Z,27.60
2023-02-09T22:36:18.097Z,22.45
2023-02-09T22:38:45.838Z,24.85
2023-02-09T22:41:22.884Z,25.65
2023-02-09T22:44:03.375Z,28.13
2023-02-09T22:46:34.384Z,27.33
2023-02-09T22:49:05.802Z,26.95
2023-02-09T22:51:35.291Z,26.20
2023-02-09T22:54:03.898Z,20.90
2023-02-09T22:56:31.268Z,23.77
2023-02-09T22:59:00.658Z,25.77
2023-02-09T23:01:29.712Z,24.98
2023-02-09T23:03:57.098Z,26.98
2023-02-09T23:06:27.277Z,23.83
2023-02-09T23:09:07.258Z,24.45
2023-02-09T23:11:35.235Z,25.50
2023-02-09T23:14:10.961Z,24.92
2023-02-09T23:16:40.750Z,22.90
2023-02-09T23:19:12.773Z,23.98
2023-02-09T23:21:44.432Z,25.77
2023-02-09T23:24:12.875Z,22.60
2023-02-09T23:26:40.305Z,25.42
2023-02-09T23:29:12.826Z,23.73
2023-02-09T23:31:40.440Z,26.58
2023-02-09T23:34:07.578Z,22.98
2023-02-09T23:36:35.554Z,24.85
2023-02-09T23:39:05.792Z,23.60
2023-02-09T23:41:34.294Z,23.27
2023-02-09T23:44:03.601Z,21.90
2023-02-09T23:46:30.743Z,23.85
2023-02-09T23:48:58.425Z,19.58
2023-02-09T23:51:30.818Z,23.98
2023-02-09T23:54:01.294Z,26.58
2023-02-09T23:56:31.879Z,21.50
2023-02-09T23:58:58.891Z,23.88
